sensor_id;sensor_type;location;lat;lon;timestamp;P1;durP1;ratioP1;P2;durP2;ratioP2
40537;SDS011;27925;41.874;12.526;2022-07-29T00:00:11;12.65;;;4.32;;
40537;SDS011;27925;41.874;12.526;2022-07-29T00:02:37;12.27;;;4.57;;
40537;SDS011;27925;41.874;12.526;2022-07-29T00:05:03;14.65;;;4.57;;
40537;SDS011;27925;41.874;12.526;2022-07-29T00:07:32;10.90;;;3.90;;
40537;SDS011;27925;41.874;12.526;2022-07-29T00:09:58;12.57;;;4.10;;
40537;SDS011;27925;41.874;12.526;2022-07-29T00:12:24;10.57;;;3.88;;
40537;SDS011;27925;41.874;12.526;2022-07-29T00:14:50;12.18;;;4.60;;
40537;SDS011;27925;41.874;12.526;2022-07-29T00:17:17;11.80;;;4.18;;
40537;SDS011;27925;41.874;12.526;2022-07-29T00:19:43;15.48;;;4.45;;
40537;SDS011;27925;41.874;12.526;2022-07-29T00:22:08;13.90;;;4.82;;
40537;SDS011;27925;41.874;12.526;2022-07-29T00:24:34;15.57;;;3.90;;
40537;SDS011;27925;41.874;12.526;2022-07-29T00:27:01;13.07;;;4.43;;
40537;SDS011;27925;41.874;12.526;2022-07-29T00:29:26;16.13;;;4.30;;
40537;SDS011;27925;41.874;12.526;2022-07-29T00:31:52;14.95;;;3.83;;
40537;SDS011;27925;41.874;12.526;2022-07-29T00:34:18;13.25;;;4.65;;
40537;SDS011;27925;41.874;12.526;2022-07-29T00:37:02;14.57;;;4.57;;
40537;SDS011;27925;41.874;12.526;2022-07-29T00:39:28;20.27;;;4.90;;
40537;SDS011;27925;41.874;12.526;2022-07-29T00:41:54;18.45;;;4.47;;
40537;SDS011;27925;41.874;12.526;2022-07-29T00:44:21;13.77;;;4.18;;
40537;SDS011;27925;41.874;12.526;2022-07-29T00:46:50;10.63;;;3.85;;
40537;SDS011;27925;41.874;12.526;2022-07-29T00:49:19;10.05;;;3.85;;
40537;SDS011;27925;41.874;12.526;2022-07-29T00:51:46;14.95;;;4.15;;
40537;SDS011;27925;41.874;12.526;2022-07-29T00:54:13;12.95;;;4.68;;
40537;SDS011;27925;41.874;12.526;2022-07-29T00:56:41;16.13;;;4.95;;
40537;SDS011;27925;41.874;12.526;2022-07-29T00:59:07;14.38;;;4.90;;
40537;SDS011;27925;41.874;12.526;2022-07-29T01:01:32;10.93;;;4.25;;
40537;SDS011;27925;41.874;12.526;2022-07-29T01:04:00;16.10;;;4.90;;
40537;SDS011;27925;41.874;12.526;2022-07-29T01:06:25;9.75;;;4.72;;
40537;SDS011;27925;41.874;12.526;2022-07-29T01:08:52;12.32;;;4.78;;
40537;SDS011;27925;41.874;12.526;2022-07-29T01:11:18;11.68;;;4.57;;
40537;SDS011;27925;41.874;12.526;2022-07-29T01:13:44;12.27;;;4.68;;
40537;SDS011;27925;41.874;12.526;2022-07-29T01:16:24;9.95;;;4.65;;
40537;SDS011;27925;41.874;12.526;2022-07-29T01:18:56;14.57;;;4.65;;
40537;SDS011;27925;41.874;12.526;2022-07-29T01:24:30;16.88;;;5.53;;
40537;SDS011;27925;41.874;12.526;2022-07-29T01:27:31;14.35;;;5.35;;
40537;SDS011;27925;41.874;12.526;2022-07-29T01:30:04;12.02;;;4.93;;
40537;SDS011;27925;41.874;12.526;2022-07-29T01:32:32;13.60;;;4.68;;
40537;SDS011;27925;41.874;12.526;2022-07-29T01:35:05;12.10;;;5.45;;
40537;SDS011;27925;41.874;12.526;2022-07-29T01:37:45;11.15;;;4.90;;
40537;SDS011;27925;41.874;12.526;2022-07-29T01:40:38;13.70;;;4.88;;
40537;SDS011;27925;41.874;12.526;2022-07-29T01:43:16;9.82;;;4.55;;
40537;SDS011;27925;41.874;12.526;2022-07-29T01:45:47;11.25;;;4.75;;
40537;SDS011;27925;41.874;12.526;2022-07-29T01:48:48;16.25;;;4.95;;
40537;SDS011;27925;41.874;12.526;2022-07-29T01:54:10;11.07;;;4.43;;
40537;SDS011;27925;41.874;12.526;2022-07-29T01:56:42;14.10;;;4.95;;
40537;SDS011;27925;41.874;12.526;2022-07-29T01:59:11;11.75;;;4.20;;
40537;SDS011;27925;41.874;12.526;2022-07-29T02:01:39;13.43;;;4.97;;
40537;SDS011;27925;41.874;12.526;2022-07-29T02:04:09;9.68;;;4.38;;
40537;SDS011;27925;41.874;12.526;2022-07-29T02:06:38;13.23;;;4.85;;
40537;SDS011;27925;41.874;12.526;2022-07-29T02:09:07;10.20;;;4.82;;
40537;SDS011;27925;41.874;12.526;2022-07-29T02:11:36;11.60;;;4.45;;
40537;SDS011;27925;41.874;12.526;2022-07-29T02:14:04;9.70;;;4.07;;
40537;SDS011;27925;41.874;12.526;2022-07-29T02:16:32;12.52;;;4.95;;
40537;SDS011;27925;41.874;12.526;2022-07-29T02:19:00;9.05;;;3.97;;
40537;SDS011;27925;41.874;12.526;2022-07-29T02:21:27;10.50;;;4.13;;
40537;SDS011;27925;41.874;12.526;2022-07-29T02:23:54;12.20;;;4.70;;
40537;SDS011;27925;41.874;12.526;2022-07-29T02:26:24;10.60;;;4.50;;
40537;SDS011;27925;41.874;12.526;2022-07-29T02:28:54;13.90;;;4.43;;
40537;SDS011;27925;41.874;12.526;2022-07-29T02:31:24;10.30;;;4.15;;
40537;SDS011;27925;41.874;12.526;2022-07-29T02:33:57;12.80;;;4.43;;
40537;SDS011;27925;41.874;12.526;2022-07-29T02:36:24;11.05;;;3.90;;
40537;SDS011;27925;41.874;12.526;2022-07-29T02:38:51;13.43;;;4.35;;
40537;SDS011;27925;41.874;12.526;2022-07-29T02:41:30;13.57;;;4.60;;
40537;SDS011;27925;41.874;12.526;2022-07-29T02:44:03;12.88;;;4.20;;
40537;SDS011;27925;41.874;12.526;2022-07-29T02:46:35;12.10;;;4.60;;
40537;SDS011;27925;41.874;12.526;2022-07-29T02:49:35;16.77;;;4.60;;
40537;SDS011;27925;41.874;12.526;2022-07-29T02:55:30;11.63;;;4.63;;
40537;SDS011;27925;41.874;12.526;2022-07-29T03:00:58;19.13;;;5.25;;
40537;SDS011;27925;41.874;12.526;2022-07-29T03:03:34;11.68;;;4.88;;
40537;SDS011;27925;41.874;12.526;2022-07-29T03:06:02;12.73;;;4.45;;
40537;SDS011;27925;41.874;12.526;2022-07-29T03:08:31;11.50;;;4.57;;
40537;SDS011;27925;41.874;12.526;2022-07-29T03:10:59;12.02;;;4.75;;
40537;SDS011;27925;41.874;12.526;2022-07-29T03:13:26;9.00;;;4.60;;
40537;SDS011;27925;41.874;12.526;2022-07-29T03:15:55;13.52;;;4.80;;
40537;SDS011;27925;41.874;12.526;2022-07-29T03:18:23;14.40;;;4.80;;
40537;SDS011;27925;41.874;12.526;2022-07-29T03:20:49;15.73;;;5.05;;
40537;SDS011;27925;41.874;12.526;2022-07-29T03:23:19;16.80;;;4.68;;
40537;SDS011;27925;41.874;12.526;2022-07-29T03:25:47;13.38;;;5.85;;
40537;SDS011;27925;41.874;12.526;2022-07-29T03:28:14;12.45;;;4.97;;
40537;SDS011;27925;41.874;12.526;2022-07-29T03:30:42;17.02;;;5.25;;
40537;SDS011;27925;41.874;12.526;2022-07-29T03:33:09;13.23;;;5.25;;
40537;SDS011;27925;41.874;12.526;2022-07-29T03:35:34;15.18;;;5.40;;
40537;SDS011;27925;41.874;12.526;2022-07-29T03:38:02;12.75;;;5.28;;
40537;SDS011;27925;41.874;12.526;2022-07-29T03:40:31;20.50;;;6.20;;
40537;SDS011;27925;41.874;12.526;2022-07-29T03:43:19;16.17;;;6.57;;
40537;SDS011;27925;41.874;12.526;2022-07-29T03:45:49;17.67;;;6.60;;
40537;SDS011;27925;41.874;12.526;2022-07-29T03:48:18;17.33;;;6.43;;
40537;SDS011;27925;41.874;12.526;2022-07-29T03:50:46;13.77;;;6.13;;
40537;SDS011;27925;41.874;12.526;2022-07-29T03:53:12;11.77;;;6.07;;
40537;SDS011;27925;41.874;12.526;2022-07-29T03:55:44;12.27;;;5.70;;
40537;SDS011;27925;41.874;12.526;2022-07-29T03:58:12;13.57;;;5.22;;
40537;SDS011;27925;41.874;12.526;2022-07-29T04:00:41;11.65;;;5.05;;
40537;SDS011;27925;41.874;12.526;2022-07-29T04:03:08;8.88;;;4.93;;
40537;SDS011;27925;41.874;12.526;2022-07-29T04:05:34;16.70;;;6.07;;
40537;SDS011;27925;41.874;12.526;2022-07-29T04:08:00;12.20;;;5.32;;
40537;SDS011;27925;41.874;12.526;2022-07-29T04:10:26;12.32;;;5.32;;
40537;SDS011;27925;41.874;12.526;2022-07-29T04:12:51;13.55;;;5.55;;
40537;SDS011;27925;41.874;12.526;2022-07-29T04:15:17;12.82;;;5.60;;
40537;SDS011;27925;41.874;12.526;2022-07-29T04:17:43;13.50;;;5.68;;
40537;SDS011;27925;41.874;12.526;2022-07-29T04:20:09;17.83;;;6.68;;
40537;SDS011;27925;41.874;12.526;2022-07-29T04:22:38;15.90;;;5.97;;
40537;SDS011;27925;41.874;12.526;2022-07-29T04:25:06;11.98;;;5.65;;
40537;SDS011;27925;41.874;12.526;2022-07-29T04:27:35;13.50;;;5.78;;
40537;SDS011;27925;41.874;12.526;2022-07-29T04:30:01;10.95;;;5.05;;
40537;SDS011;27925;41.874;12.526;2022-07-29T04:32:26;13.70;;;5.22;;
40537;SDS011;27925;41.874;12.526;2022-07-29T04:34:52;16.75;;;6.03;;
40537;SDS011;27925;41.874;12.526;2022-07-29T04:37:18;13.55;;;4.88;;
40537;SDS011;27925;41.874;12.526;2022-07-29T04:39:44;11.85;;;5.53;;
40537;SDS011;27925;41.874;12.526;2022-07-29T04:42:10;17.73;;;6.28;;
40537;SDS011;27925;41.874;12.526;2022-07-29T04:44:37;17.33;;;6.07;;
40537;SDS011;27925;41.874;12.526;2022-07-29T04:47:02;12.20;;;5.72;;
40537;SDS011;27925;41.874;12.526;2022-07-29T04:49:28;19.05;;;6.45;;
40537;SDS011;27925;41.874;12.526;2022-07-29T04:51:55;17.33;;;6.13;;
40537;SDS011;27925;41.874;12.526;2022-07-29T04:54:21;13.95;;;6.03;;
40537;SDS011;27925;41.874;12.526;2022-07-29T04:56:47;16.48;;;6.40;;
40537;SDS011;27925;41.874;12.526;2022-07-29T04:59:13;15.32;;;6.43;;
40537;SDS011;27925;41.874;12.526;2022-07-29T05:01:39;15.48;;;5.65;;
40537;SDS011;27925;41.874;12.526;2022-07-29T05:04:05;13.10;;;5.63;;
40537;SDS011;27925;41.874;12.526;2022-07-29T05:06:30;20.27;;;5.63;;
40537;SDS011;27925;41.874;12.526;2022-07-29T05:08:57;10.10;;;5.68;;
40537;SDS011;27925;41.874;12.526;2022-07-29T05:11:22;13.50;;;5.80;;
40537;SDS011;27925;41.874;12.526;2022-07-29T05:13:49;13.60;;;5.32;;
40537;SDS011;27925;41.874;12.526;2022-07-29T05:16:15;12.68;;;5.43;;
40537;SDS011;27925;41.874;12.526;2022-07-29T05:18:41;12.07;;;5.30;;
40537;SDS011;27925;41.874;12.526;2022-07-29T05:21:07;15.52;;;5.70;;
40537;SDS011;27925;41.874;12.526;2022-07-29T05:23:32;13.88;;;5.15;;
40537;SDS011;27925;41.874;12.526;2022-07-29T05:25:58;11.60;;;5.55;;
40537;SDS011;27925;41.874;12.526;2022-07-29T05:28:24;12.95;;;5.63;;
40537;SDS011;27925;41.874;12.526;2022-07-29T05:30:49;14.40;;;5.35;;
40537;SDS011;27925;41.874;12.526;2022-07-29T05:33:15;14.68;;;5.40;;
40537;SDS011;27925;41.874;12.526;2022-07-29T05:35:41;13.63;;;4.82;;
40537;SDS011;27925;41.874;12.526;2022-07-29T05:38:06;14.30;;;4.68;;
40537;SDS011;27925;41.874;12.526;2022-07-29T05:40:34;12.43;;;4.65;;
40537;SDS011;27925;41.874;12.526;2022-07-29T05:42:59;13.15;;;4.40;;
40537;SDS011;27925;41.874;12.526;2022-07-29T05:45:25;15.95;;;5.03;;
40537;SDS011;27925;41.874;12.526;2022-07-29T05:47:51;14.50;;;4.85;;
40537;SDS011;27925;41.874;12.526;2022-07-29T05:50:16;19.33;;;6.10;;
40537;SDS011;27925;41.874;12.526;2022-07-29T05:52:44;14.27;;;4.63;;
40537;SDS011;27925;41.874;12.526;2022-07-29T05:55:09;21.48;;;5.40;;
40537;SDS011;27925;41.874;12.526;2022-07-29T05:57:35;12.52;;;4.40;;
40537;SDS011;27925;41.874;12.526;2022-07-29T06:00:01;13.65;;;4.20;;
40537;SDS011;27925;41.874;12.526;2022-07-29T06:02:31;13.00;;;4.78;;
40537;SDS011;27925;41.874;12.526;2022-07-29T06:04:56;13.52;;;4.82;;
40537;SDS011;27925;41.874;12.526;2022-07-29T06:07:22;17.30;;;4.95;;
40537;SDS011;27925;41.874;12.526;2022-07-29T06:09:50;11.80;;;4.40;;
40537;SDS011;27925;41.874;12.526;2022-07-29T06:12:16;11.60;;;4.22;;
40537;SDS011;27925;41.874;12.526;2022-07-29T06:14:42;14.25;;;3.97;;
40537;SDS011;27925;41.874;12.526;2022-07-29T06:17:08;12.48;;;4.68;;
40537;SDS011;27925;41.874;12.526;2022-07-29T06:19:34;12.48;;;4.40;;
40537;SDS011;27925;41.874;12.526;2022-07-29T06:22:01;11.43;;;4.35;;
40537;SDS011;27925;41.874;12.526;2022-07-29T06:24:28;12.73;;;4.20;;
40537;SDS011;27925;41.874;12.526;2022-07-29T06:26:54;13.82;;;4.38;;
40537;SDS011;27925;41.874;12.526;2022-07-29T06:29:21;15.02;;;4.72;;
40537;SDS011;27925;41.874;12.526;2022-07-29T06:31:47;15.07;;;4.80;;
40537;SDS011;27925;41.874;12.526;2022-07-29T06:34:12;15.23;;;5.38;;
40537;SDS011;27925;41.874;12.526;2022-07-29T06:36:39;16.90;;;5.07;;
40537;SDS011;27925;41.874;12.526;2022-07-29T06:39:08;17.45;;;4.53;;
40537;SDS011;27925;41.874;12.526;2022-07-29T06:41:33;17.73;;;6.82;;
40537;SDS011;27925;41.874;12.526;2022-07-29T06:44:00;12.45;;;4.97;;
40537;SDS011;27925;41.874;12.526;2022-07-29T06:46:26;21.02;;;5.63;;
40537;SDS011;27925;41.874;12.526;2022-07-29T06:48:52;18.33;;;5.43;;
40537;SDS011;27925;41.874;12.526;2022-07-29T06:51:18;13.65;;;4.45;;
40537;SDS011;27925;41.874;12.526;2022-07-29T06:53:45;15.80;;;4.43;;
40537;SDS011;27925;41.874;12.526;2022-07-29T06:56:11;13.43;;;4.32;;
40537;SDS011;27925;41.874;12.526;2022-07-29T06:58:39;11.55;;;4.70;;
40537;SDS011;27925;41.874;12.526;2022-07-29T07:01:05;13.15;;;4.70;;
40537;SDS011;27925;41.874;12.526;2022-07-29T07:03:32;13.65;;;4.53;;
40537;SDS011;27925;41.874;12.526;2022-07-29T07:05:57;17.38;;;5.60;;
40537;SDS011;27925;41.874;12.526;2022-07-29T07:08:23;22.48;;;6.53;;
40537;SDS011;27925;41.874;12.526;2022-07-29T07:10:50;23.33;;;6.88;;
40537;SDS011;27925;41.874;12.526;2022-07-29T07:13:16;16.98;;;5.20;;
40537;SDS011;27925;41.874;12.526;2022-07-29T07:15:45;17.75;;;5.43;;
40537;SDS011;27925;41.874;12.526;2022-07-29T07:18:13;11.95;;;4.07;;
40537;SDS011;27925;41.874;12.526;2022-07-29T07:20:40;12.43;;;4.75;;
40537;SDS011;27925;41.874;12.526;2022-07-29T07:23:06;16.42;;;4.68;;
40537;SDS011;27925;41.874;12.526;2022-07-29T07:25:32;17.73;;;6.82;;
40537;SDS011;27925;41.874;12.526;2022-07-29T07:27:57;13.40;;;4.93;;
40537;SDS011;27925;41.874;12.526;2022-07-29T07:30:23;11.52;;;4.30;;
40537;SDS011;27925;41.874;12.526;2022-07-29T07:32:49;14.40;;;5.18;;
40537;SDS011;27925;41.874;12.526;2022-07-29T07:35:15;20.85;;;7.47;;
40537;SDS011;27925;41.874;12.526;2022-07-29T07:37:41;16.42;;;5.97;;
40537;SDS011;27925;41.874;12.526;2022-07-29T07:40:08;18.10;;;5.10;;
40537;SDS011;27925;41.874;12.526;2022-07-29T07:42:36;22.80;;;6.03;;
40537;SDS011;27925;41.874;12.526;2022-07-29T07:45:03;8.70;;;3.33;;
40537;SDS011;27925;41.874;12.526;2022-07-29T07:47:29;18.38;;;5.15;;
40537;SDS011;27925;41.874;12.526;2022-07-29T07:49:55;13.57;;;5.07;;
40537;SDS011;27925;41.874;12.526;2022-07-29T07:52:21;17.33;;;6.75;;
40537;SDS011;27925;41.874;12.526;2022-07-29T07:54:47;14.90;;;4.80;;
40537;SDS011;27925;41.874;12.526;2022-07-29T07:57:14;14.48;;;4.80;;
40537;SDS011;27925;41.874;12.526;2022-07-29T07:59:40;19.38;;;7.05;;
40537;SDS011;27925;41.874;12.526;2022-07-29T08:02:06;10.48;;;3.97;;
40537;SDS011;27925;41.874;12.526;2022-07-29T08:04:34;18.15;;;6.22;;
40537;SDS011;27925;41.874;12.526;2022-07-29T08:07:00;19.67;;;7.45;;
40537;SDS011;27925;41.874;12.526;2022-07-29T08:09:27;16.05;;;6.45;;
40537;SDS011;27925;41.874;12.526;2022-07-29T08:11:54;11.52;;;3.80;;
40537;SDS011;27925;41.874;12.526;2022-07-29T08:14:20;20.90;;;5.45;;
40537;SDS011;27925;41.874;12.526;2022-07-29T08:16:46;13.27;;;6.18;;
40537;SDS011;27925;41.874;12.526;2022-07-29T08:19:14;16.65;;;6.80;;
40537;SDS011;27925;41.874;12.526;2022-07-29T08:21:39;12.30;;;4.32;;
40537;SDS011;27925;41.874;12.526;2022-07-29T08:24:05;11.88;;;4.53;;
40537;SDS011;27925;41.874;12.526;2022-07-29T08:26:50;17.17;;;6.57;;
40537;SDS011;27925;41.874;12.526;2022-07-29T08:29:16;16.67;;;6.90;;
40537;SDS011;27925;41.874;12.526;2022-07-29T08:31:45;12.63;;;4.40;;
40537;SDS011;27925;41.874;12.526;2022-07-29T08:34:16;12.88;;;5.10;;
40537;SDS011;27925;41.874;12.526;2022-07-29T08:36:41;13.32;;;4.47;;
40537;SDS011;27925;41.874;12.526;2022-07-29T08:39:07;17.98;;;7.32;;
40537;SDS011;27925;41.874;12.526;2022-07-29T08:41:33;15.05;;;6.35;;
40537;SDS011;27925;41.874;12.526;2022-07-29T08:43:59;13.05;;;5.80;;
40537;SDS011;27925;41.874;12.526;2022-07-29T08:46:25;12.98;;;5.00;;
40537;SDS011;27925;41.874;12.526;2022-07-29T08:48:52;17.02;;;7.25;;
40537;SDS011;27925;41.874;12.526;2022-07-29T08:51:20;12.27;;;4.53;;
40537;SDS011;27925;41.874;12.526;2022-07-29T08:53:47;10.85;;;3.90;;
40537;SDS011;27925;41.874;12.526;2022-07-29T08:56:16;10.75;;;3.17;;
40537;SDS011;27925;41.874;12.526;2022-07-29T08:58:43;10.43;;;3.90;;
40537;SDS011;27925;41.874;12.526;2022-07-29T09:01:11;9.20;;;3.58;;
40537;SDS011;27925;41.874;12.526;2022-07-29T09:03:41;11.85;;;3.60;;
40537;SDS011;27925;41.874;12.526;2022-07-29T09:06:14;9.57;;;3.97;;
40537;SDS011;27925;41.874;12.526;2022-07-29T09:08:42;9.10;;;3.60;;
40537;SDS011;27925;41.874;12.526;2022-07-29T09:11:09;8.25;;;3.95;;
40537;SDS011;27925;41.874;12.526;2022-07-29T09:13:36;9.75;;;3.70;;
40537;SDS011;27925;41.874;12.526;2022-07-29T09:16:02;9.20;;;3.80;;
40537;SDS011;27925;41.874;12.526;2022-07-29T09:21:01;14.80;;;4.57;;
40537;SDS011;27925;41.874;12.526;2022-07-29T09:26:33;11.80;;;4.60;;
40537;SDS011;27925;41.874;12.526;2022-07-29T09:29:07;15.90;;;6.85;;
40537;SDS011;27925;41.874;12.526;2022-07-29T09:31:36;17.83;;;4.03;;
40537;SDS011;27925;41.874;12.526;2022-07-29T09:34:04;9.95;;;3.63;;
40537;SDS011;27925;41.874;12.526;2022-07-29T09:36:32;10.13;;;3.53;;
40537;SDS011;27925;41.874;12.526;2022-07-29T09:39:11;7.57;;;3.22;;
40537;SDS011;27925;41.874;12.526;2022-07-29T09:41:52;10.38;;;3.63;;
40537;SDS011;27925;41.874;12.526;2022-07-29T09:44:19;12.80;;;4.00;;
40537;SDS011;27925;41.874;12.526;2022-07-29T09:46:56;8.98;;;3.05;;
40537;SDS011;27925;41.874;12.526;2022-07-29T09:49:24;10.68;;;3.60;;
40537;SDS011;27925;41.874;12.526;2022-07-29T09:54:45;9.05;;;3.70;;
40537;SDS011;27925;41.874;12.526;2022-07-29T09:57:21;10.48;;;3.65;;
40537;SDS011;27925;41.874;12.526;2022-07-29T09:59:59;8.93;;;3.15;;
40537;SDS011;27925;41.874;12.526;2022-07-29T10:02:34;14.77;;;3.92;;
40537;SDS011;27925;41.874;12.526;2022-07-29T10:05:04;8.15;;;3.13;;
40537;SDS011;27925;41.874;12.526;2022-07-29T10:10:27;11.05;;;3.90;;
40537;SDS011;27925;41.874;12.526;2022-07-29T10:12:55;13.43;;;4.45;;
40537;SDS011;27925;41.874;12.526;2022-07-29T10:15:23;10.52;;;3.65;;
40537;SDS011;27925;41.874;12.526;2022-07-29T10:17:51;9.95;;;3.42;;
40537;SDS011;27925;41.874;12.526;2022-07-29T10:20:18;7.93;;;3.20;;
40537;SDS011;27925;41.874;12.526;2022-07-29T10:22:46;16.45;;;6.15;;
40537;SDS011;27925;41.874;12.526;2022-07-29T10:25:13;9.38;;;3.55;;
40537;SDS011;27925;41.874;12.526;2022-07-29T10:27:40;12.02;;;4.50;;
40537;SDS011;27925;41.874;12.526;2022-07-29T10:30:07;11.48;;;4.93;;
40537;SDS011;27925;41.874;12.526;2022-07-29T10:32:38;7.90;;;3.47;;
40537;SDS011;27925;41.874;12.526;2022-07-29T10:43:41;9.88;;;4.38;;
40537;SDS011;27925;41.874;12.526;2022-07-29T10:46:09;9.63;;;3.95;;
40537;SDS011;27925;41.874;12.526;2022-07-29T10:52:21;12.05;;;4.25;;
40537;SDS011;27925;41.874;12.526;2022-07-29T10:57:26;11.30;;;3.53;;
40537;SDS011;27925;41.874;12.526;2022-07-29T11:07:24;8.90;;;3.08;;
40537;SDS011;27925;41.874;12.526;2022-07-29T11:15:05;7.82;;;3.63;;
40537;SDS011;27925;41.874;12.526;2022-07-29T11:23:28;13.80;;;3.53;;
40537;SDS011;27925;41.874;12.526;2022-07-29T11:28:50;9.80;;;3.50;;
40537;SDS011;27925;41.874;12.526;2022-07-29T11:34:20;13.00;;;3.53;;
40537;SDS011;27925;41.874;12.526;2022-07-29T11:47:26;7.43;;;3.42;;
40537;SDS011;27925;41.874;12.526;2022-07-29T11:49:53;11.50;;;4.15;;
40537;SDS011;27925;41.874;12.526;2022-07-29T11:52:20;10.50;;;3.47;;
40537;SDS011;27925;41.874;12.526;2022-07-29T11:54:49;12.73;;;3.83;;
40537;SDS011;27925;41.874;12.526;2022-07-29T11:57:16;8.80;;;3.17;;
40537;SDS011;27925;41.874;12.526;2022-07-29T11:59:43;12.77;;;3.28;;
40537;SDS011;27925;41.874;12.526;2022-07-29T12:02:10;9.48;;;3.88;;
40537;SDS011;27925;41.874;12.526;2022-07-29T12:07:15;11.98;;;3.67;;
40537;SDS011;27925;41.874;12.526;2022-07-29T12:09:52;10.02;;;3.60;;
40537;SDS011;27925;41.874;12.526;2022-07-29T12:12:19;10.93;;;3.40;;
40537;SDS011;27925;41.874;12.526;2022-07-29T12:14:46;7.47;;;3.40;;
40537;SDS011;27925;41.874;12.526;2022-07-29T12:17:31;13.80;;;3.53;;
40537;SDS011;27925;41.874;12.526;2022-07-29T12:20:02;11.40;;;3.55;;
40537;SDS011;27925;41.874;12.526;2022-07-29T12:22:30;9.00;;;3.22;;
40537;SDS011;27925;41.874;12.526;2022-07-29T12:25:02;10.18;;;3.30;;
40537;SDS011;27925;41.874;12.526;2022-07-29T12:27:29;14.32;;;3.80;;
40537;SDS011;27925;41.874;12.526;2022-07-29T12:29:59;10.05;;;3.20;;
40537;SDS011;27925;41.874;12.526;2022-07-29T12:32:36;8.88;;;3.47;;
40537;SDS011;27925;41.874;12.526;2022-07-29T12:35:06;11.30;;;3.70;;
40537;SDS011;27925;41.874;12.526;2022-07-29T12:37:36;8.07;;;3.20;;
40537;SDS011;27925;41.874;12.526;2022-07-29T12:40:06;6.63;;;2.78;;
40537;SDS011;27925;41.874;12.526;2022-07-29T12:42:33;8.27;;;3.20;;
40537;SDS011;27925;41.874;12.526;2022-07-29T12:45:01;8.60;;;3.70;;
40537;SDS011;27925;41.874;12.526;2022-07-29T12:47:27;9.32;;;3.22;;
40537;SDS011;27925;41.874;12.526;2022-07-29T12:50:09;10.20;;;3.20;;
40537;SDS011;27925;41.874;12.526;2022-07-29T12:52:39;9.95;;;3.47;;
40537;SDS011;27925;41.874;12.526;2022-07-29T12:55:05;6.80;;;3.13;;
40537;SDS011;27925;41.874;12.526;2022-07-29T12:57:43;10.48;;;3.35;;
40537;SDS011;27925;41.874;12.526;2022-07-29T13:00:12;6.70;;;3.00;;
40537;SDS011;27925;41.874;12.526;2022-07-29T13:02:53;16.33;;;3.83;;
40537;SDS011;27925;41.874;12.526;2022-07-29T13:05:22;10.65;;;3.05;;
40537;SDS011;27925;41.874;12.526;2022-07-29T13:07:49;15.82;;;3.47;;
40537;SDS011;27925;41.874;12.526;2022-07-29T13:10:19;6.65;;;3.20;;
40537;SDS011;27925;41.874;12.526;2022-07-29T13:15:31;8.13;;;2.95;;
40537;SDS011;27925;41.874;12.526;2022-07-29T13:17:58;11.70;;;3.63;;
40537;SDS011;27925;41.874;12.526;2022-07-29T13:20:25;11.75;;;3.13;;
40537;SDS011;27925;41.874;12.526;2022-07-29T13:22:56;6.45;;;2.75;;
40537;SDS011;27925;41.874;12.526;2022-07-29T13:25:26;9.40;;;3.63;;
40537;SDS011;27925;41.874;12.526;2022-07-29T13:27:55;8.05;;;2.97;;
40537;SDS011;27925;41.874;12.526;2022-07-29T13:30:21;10.45;;;3.00;;
40537;SDS011;27925;41.874;12.526;2022-07-29T13:32:49;13.23;;;3.53;;
40537;SDS011;27925;41.874;12.526;2022-07-29T13:35:17;12.85;;;3.42;;
40537;SDS011;27925;41.874;12.526;2022-07-29T13:37:50;9.50;;;3.17;;
40537;SDS011;27925;41.874;12.526;2022-07-29T13:40:17;10.13;;;3.03;;
40537;SDS011;27925;41.874;12.526;2022-07-29T13:42:46;7.93;;;2.92;;
40537;SDS011;27925;41.874;12.526;2022-07-29T13:45:13;11.57;;;3.20;;
40537;SDS011;27925;41.874;12.526;2022-07-29T13:47:40;10.82;;;2.72;;
40537;SDS011;27925;41.874;12.526;2022-07-29T13:50:07;7.78;;;3.10;;
40537;SDS011;27925;41.874;12.526;2022-07-29T13:52:34;10.00;;;3.05;;
40537;SDS011;27925;41.874;12.526;2022-07-29T13:55:01;7.53;;;2.88;;
40537;SDS011;27925;41.874;12.526;2022-07-29T13:57:29;10.00;;;3.08;;
40537;SDS011;27925;41.874;12.526;2022-07-29T13:59:55;13.05;;;3.05;;
40537;SDS011;27925;41.874;12.526;2022-07-29T14:02:22;9.45;;;3.42;;
40537;SDS011;27925;41.874;12.526;2022-07-29T14:04:48;10.90;;;3.67;;
40537;SDS011;27925;41.874;12.526;2022-07-29T14:07:13;9.95;;;3.20;;
40537;SDS011;27925;41.874;12.526;2022-07-29T14:09:42;11.27;;;3.20;;
40537;SDS011;27925;41.874;12.526;2022-07-29T14:12:08;8.52;;;2.90;;
40537;SDS011;27925;41.874;12.526;2022-07-29T14:14:35;7.15;;;2.47;;
40537;SDS011;27925;41.874;12.526;2022-07-29T14:17:08;7.35;;;2.92;;
40537;SDS011;27925;41.874;12.526;2022-07-29T14:19:37;14.23;;;3.42;;
40537;SDS011;27925;41.874;12.526;2022-07-29T14:22:04;12.50;;;3.50;;
40537;SDS011;27925;41.874;12.526;2022-07-29T14:24:35;9.00;;;2.80;;
40537;SDS011;27925;41.874;12.526;2022-07-29T14:27:03;8.60;;;2.80;;
40537;SDS011;27925;41.874;12.526;2022-07-29T14:29:30;7.63;;;2.85;;
40537;SDS011;27925;41.874;12.526;2022-07-29T14:31:57;8.77;;;3.13;;
40537;SDS011;27925;41.874;12.526;2022-07-29T14:34:23;10.35;;;2.88;;
40537;SDS011;27925;41.874;12.526;2022-07-29T14:37:00;11.35;;;2.83;;
40537;SDS011;27925;41.874;12.526;2022-07-29T14:39:25;11.68;;;3.10;;
40537;SDS011;27925;41.874;12.526;2022-07-29T14:41:52;7.80;;;3.00;;
40537;SDS011;27925;41.874;12.526;2022-07-29T14:44:18;9.82;;;2.83;;
40537;SDS011;27925;41.874;12.526;2022-07-29T14:46:46;9.05;;;2.75;;
40537;SDS011;27925;41.874;12.526;2022-07-29T14:49:12;9.35;;;2.85;;
40537;SDS011;27925;41.874;12.526;2022-07-29T14:51:37;8.88;;;2.97;;
40537;SDS011;27925;41.874;12.526;2022-07-29T14:54:04;8.65;;;2.92;;
40537;SDS011;27925;41.874;12.526;2022-07-29T14:56:32;6.32;;;2.92;;
40537;SDS011;27925;41.874;12.526;2022-07-29T14:59:01;11.20;;;2.60;;
40537;SDS011;27925;41.874;12.526;2022-07-29T15:01:27;7.60;;;2.83;;
40537;SDS011;27925;41.874;12.526;2022-07-29T15:03:55;11.05;;;2.92;;
40537;SDS011;27925;41.874;12.526;2022-07-29T15:06:23;8.18;;;2.95;;
40537;SDS011;27925;41.874;12.526;2022-07-29T15:09:01;9.85;;;3.38;;
40537;SDS011;27925;41.874;12.526;2022-07-29T15:11:27;10.70;;;3.10;;
40537;SDS011;27925;41.874;12.526;2022-07-29T15:13:52;7.65;;;2.90;;
40537;SDS011;27925;41.874;12.526;2022-07-29T15:16:19;11.90;;;3.00;;
40537;SDS011;27925;41.874;12.526;2022-07-29T15:18:45;11.43;;;2.67;;
40537;SDS011;27925;41.874;12.526;2022-07-29T15:21:11;8.43;;;3.17;;
40537;SDS011;27925;41.874;12.526;2022-07-29T15:23:37;8.73;;;2.80;;
40537;SDS011;27925;41.874;12.526;2022-07-29T15:26:03;8.60;;;3.35;;
40537;SDS011;27925;41.874;12.526;2022-07-29T15:28:29;8.52;;;3.35;;
40537;SDS011;27925;41.874;12.526;2022-07-29T15:30:58;8.85;;;2.95;;
40537;SDS011;27925;41.874;12.526;2022-07-29T15:33:44;12.82;;;5.70;;
40537;SDS011;27925;41.874;12.526;2022-07-29T15:36:10;11.68;;;5.05;;
40537;SDS011;27925;41.874;12.526;2022-07-29T15:38:53;11.50;;;4.88;;
40537;SDS011;27925;41.874;12.526;2022-07-29T15:41:20;7.90;;;2.80;;
40537;SDS011;27925;41.874;12.526;2022-07-29T15:43:47;9.07;;;3.08;;
40537;SDS011;27925;41.874;12.526;2022-07-29T15:46:15;9.68;;;2.90;;
40537;SDS011;27925;41.874;12.526;2022-07-29T15:49:03;9.20;;;2.83;;